Penrod, Kentucky
Current Conditions -  °F | °C
As of 7:35 AM on Friday 19 Dec 2014 (Local Time) from K2I0 Reporting Station
Overcast Overcast  
Wind Chill: 28°   Ceiling: 4200
Heat Index: 33°   Visibility: 7mi
Dew Point: 29°   Wind: 5mph
Humidity: 85%   Direction: 40°NE
Pressure: 30.31"   Gusts: NA
Location:  37.11°N, 87°W
Report Text: K2I0 191335Z AUTO 04004KT 7SM OVC042 00/M02 A3031 RMK AO2 T00031019
Loading
Personal Weather Stations






























Interactive Weather Map New forecast layout! Learn more

10-Day Weather Forecast

Advertisements
Track Severe Weather on mobile